createdAt,value
2018-07-05T00:00:53.273Z,4.57
2018-07-05T00:03:27.236Z,4.97
2018-07-05T00:06:01.171Z,4.87
2018-07-05T00:08:35.128Z,5.00
2018-07-05T00:11:08.929Z,5.40
2018-07-05T00:13:42.911Z,4.70
2018-07-05T00:16:17.146Z,5.40
2018-07-05T00:18:51.085Z,5.13
2018-07-05T00:21:24.708Z,4.97
2018-07-05T00:23:58.396Z,4.40
2018-07-05T00:26:32.204Z,4.50
2018-07-05T00:29:05.971Z,4.03
2018-07-05T00:31:39.851Z,4.33
2018-07-05T00:34:13.876Z,3.80
2018-07-05T00:36:47.684Z,3.93
2018-07-05T00:39:21.662Z,3.30
2018-07-05T00:41:55.768Z,3.57
2018-07-05T00:44:29.492Z,4.00
2018-07-05T00:47:03.460Z,3.30
2018-07-05T00:49:37.227Z,3.47
2018-07-05T00:52:11.154Z,3.73
2018-07-05T00:54:44.976Z,3.70
2018-07-05T00:57:18.971Z,3.83
2018-07-05T00:59:52.879Z,3.60
2018-07-05T01:02:26.769Z,3.50
2018-07-05T01:05:00.711Z,4.00
2018-07-05T01:07:34.494Z,4.03
2018-07-05T01:10:08.252Z,3.20
2018-07-05T01:12:42.103Z,3.80
2018-07-05T01:15:16.020Z,3.57
2018-07-05T01:17:49.710Z,3.80
2018-07-05T01:20:23.395Z,3.93
2018-07-05T01:22:57.295Z,3.73
2018-07-05T01:25:31.258Z,3.23
2018-07-05T01:28:05.085Z,3.37
2018-07-05T01:30:38.848Z,3.23
2018-07-05T01:33:12.723Z,3.70
2018-07-05T01:35:46.568Z,3.83
2018-07-05T01:38:20.433Z,4.40
2018-07-05T01:40:54.359Z,3.83
2018-07-05T01:43:28.287Z,3.57
2018-07-05T01:46:02.152Z,3.70
2018-07-05T01:48:36.035Z,3.50
2018-07-05T01:51:09.812Z,4.10
2018-07-05T01:53:43.864Z,3.47
2018-07-05T01:56:17.727Z,3.33
2018-07-05T01:58:51.444Z,3.90
2018-07-05T02:01:25.232Z,3.17
2018-07-05T02:03:59.254Z,3.70
2018-07-05T02:06:33.416Z,3.87
2018-07-05T02:09:07.131Z,3.53
2018-07-05T02:11:40.959Z,3.50
2018-07-05T02:14:15.022Z,4.07
2018-07-05T02:16:48.864Z,3.47
2018-07-05T02:19:22.640Z,4.30
2018-07-05T02:21:56.476Z,3.63
2018-07-05T02:24:30.500Z,3.37
2018-07-05T02:27:04.436Z,3.90
2018-07-05T02:29:38.220Z,3.50
2018-07-05T02:32:11.854Z,3.37
2018-07-05T02:34:45.636Z,3.70
2018-07-05T02:37:24.924Z,3.40
2018-07-05T02:39:58.595Z,3.53
2018-07-05T02:42:32.379Z,3.37
2018-07-05T02:45:06.121Z,3.97
2018-07-05T02:47:39.893Z,3.53
2018-07-05T02:50:13.900Z,3.90
2018-07-05T02:52:47.741Z,3.90
2018-07-05T02:55:21.433Z,3.80
2018-07-05T02:57:55.124Z,3.97
2018-07-05T03:00:28.808Z,3.27
2018-07-05T03:03:02.487Z,3.60
2018-07-05T03:05:36.125Z,3.57
2018-07-05T03:08:09.841Z,3.63
2018-07-05T03:10:43.500Z,3.60
2018-07-05T03:13:17.253Z,3.10
2018-07-05T03:15:50.916Z,4.00
2018-07-05T03:18:24.765Z,3.33
2018-07-05T03:20:58.525Z,3.27
2018-07-05T03:23:32.350Z,3.60
2018-07-05T03:26:06.004Z,3.20
2018-07-05T03:28:39.639Z,3.70
2018-07-05T03:31:13.297Z,3.90
2018-07-05T03:33:46.953Z,3.83
2018-07-05T03:36:20.521Z,3.00
2018-07-05T03:38:54.135Z,3.60
2018-07-05T03:41:27.704Z,3.30
2018-07-05T03:44:01.337Z,3.30
2018-07-05T03:46:34.987Z,2.90
2018-07-05T03:49:08.721Z,3.50
2018-07-05T03:51:42.388Z,3.30
2018-07-05T03:54:16.055Z,3.17
2018-07-05T03:56:49.749Z,3.90
2018-07-05T03:59:23.611Z,3.60
2018-07-05T04:01:57.256Z,3.23
2018-07-05T04:04:30.891Z,3.53
2018-07-05T04:07:04.667Z,3.60
2018-07-05T04:09:38.572Z,3.33
2018-07-05T04:12:12.173Z,3.20
2018-07-05T04:14:45.889Z,3.30
2018-07-05T04:17:19.682Z,3.57
2018-07-05T04:19:53.541Z,3.40
2018-07-05T04:25:15.151Z,2.77
2018-07-05T04:27:48.871Z,3.53
2018-07-05T04:30:22.661Z,3.23
2018-07-05T04:32:56.325Z,3.20
2018-07-05T04:35:29.910Z,2.57
2018-07-05T04:38:03.756Z,2.90
2018-07-05T04:40:37.276Z,2.70
2018-07-05T04:43:11.078Z,2.90
2018-07-05T04:45:44.717Z,3.00
2018-07-05T04:48:18.412Z,2.70
2018-07-05T04:50:52.242Z,3.20
2018-07-05T04:53:25.873Z,3.00
2018-07-05T04:55:59.670Z,3.30
2018-07-05T04:58:33.200Z,2.77
2018-07-05T05:01:06.952Z,3.00
2018-07-05T05:03:41.257Z,3.53
2018-07-05T05:06:14.910Z,2.97
2018-07-05T05:08:48.698Z,3.10
2018-07-05T05:11:22.156Z,3.10
2018-07-05T05:13:55.772Z,3.40
2018-07-05T05:16:29.417Z,3.80
2018-07-05T05:19:03.022Z,3.50
2018-07-05T05:21:36.820Z,3.90
2018-07-05T05:24:10.449Z,3.53
2018-07-05T05:26:44.108Z,3.00
2018-07-05T05:29:17.916Z,2.87
2018-07-05T05:31:51.762Z,2.97
2018-07-05T05:34:25.413Z,2.90
2018-07-05T05:36:59.106Z,3.10
2018-07-05T05:39:32.720Z,3.10
2018-07-05T05:42:06.297Z,3.40
2018-07-05T05:44:40.037Z,2.83
2018-07-05T05:47:13.674Z,2.83
2018-07-05T05:49:47.453Z,3.10
2018-07-05T05:52:21.284Z,3.57
2018-07-05T05:54:54.940Z,3.53
2018-07-05T05:57:30.138Z,3.60
2018-07-05T06:00:03.816Z,2.87
2018-07-05T06:02:37.644Z,3.83
2018-07-05T06:11:04.422Z,4.03
2018-07-05T06:16:32.913Z,2.90
2018-07-05T06:19:06.469Z,3.43
2018-07-05T06:21:40.108Z,3.17
2018-07-05T06:24:13.813Z,3.63
2018-07-05T06:26:47.577Z,2.90
2018-07-05T06:29:21.085Z,3.20
2018-07-05T06:31:54.761Z,3.10
2018-07-05T06:34:28.390Z,2.70
2018-07-05T06:37:02.095Z,3.40
2018-07-05T06:39:35.844Z,3.90
2018-07-05T06:42:09.556Z,3.47
2018-07-05T06:44:43.172Z,3.47
2018-07-05T06:47:16.909Z,3.27
2018-07-05T06:49:50.656Z,4.40
2018-07-05T06:52:24.346Z,3.40
2018-07-05T06:54:57.988Z,3.37
2018-07-05T06:57:31.540Z,3.43
2018-07-05T07:00:05.232Z,3.40
2018-07-05T07:02:38.855Z,3.70
2018-07-05T07:05:12.471Z,3.40
2018-07-05T07:07:46.277Z,3.47
2018-07-05T07:10:19.981Z,4.13
2018-07-05T07:12:53.521Z,4.00
2018-07-05T07:15:27.249Z,3.33
2018-07-05T07:18:01.071Z,3.93
2018-07-05T07:20:34.777Z,3.73
2018-07-05T07:23:08.444Z,4.17
2018-07-05T07:25:42.236Z,4.00
2018-07-05T07:28:15.961Z,4.20
2018-07-05T07:30:49.620Z,4.53
2018-07-05T07:33:23.184Z,4.57
2018-07-05T07:35:56.753Z,4.60
2018-07-05T07:38:30.488Z,5.33
2018-07-05T07:41:04.183Z,5.07
2018-07-05T07:43:31.732Z,5.17
2018-07-05T07:45:59.284Z,5.40
2018-07-05T07:48:26.852Z,5.70
2018-07-05T07:50:54.464Z,5.80
2018-07-05T07:53:22.033Z,5.70
2018-07-05T07:55:49.586Z,5.50
2018-07-05T07:58:17.175Z,5.97
2018-07-05T08:00:44.720Z,5.53
2018-07-05T08:03:12.306Z,6.40
2018-07-05T08:05:39.865Z,5.80
2018-07-05T08:08:07.445Z,6.60
2018-07-05T08:10:35.012Z,6.07
2018-07-05T08:13:02.581Z,6.10
2018-07-05T08:15:30.141Z,6.70
2018-07-05T08:17:57.709Z,5.87
2018-07-05T08:20:25.265Z,5.87
2018-07-05T08:22:52.848Z,6.43
2018-07-05T08:25:20.400Z,6.33
2018-07-05T08:27:47.972Z,6.70
2018-07-05T08:30:15.527Z,6.10
2018-07-05T08:32:43.108Z,6.30
2018-07-05T08:35:10.660Z,6.87
2018-07-05T08:37:38.217Z,6.77
2018-07-05T08:40:05.793Z,7.27
2018-07-05T08:42:33.358Z,6.53
2018-07-05T08:45:00.929Z,6.30
2018-07-05T08:47:28.485Z,7.40
2018-07-05T08:49:56.059Z,7.00
2018-07-05T08:52:23.617Z,6.57
2018-07-05T08:54:51.188Z,7.07
2018-07-05T08:57:18.748Z,6.57
2018-07-05T08:59:46.320Z,6.60
2018-07-05T09:02:13.896Z,7.67
2018-07-05T09:04:41.481Z,6.97
2018-07-05T09:07:09.092Z,7.47
2018-07-05T09:09:36.678Z,6.80
2018-07-05T09:12:04.237Z,6.80
2018-07-05T09:14:32.037Z,6.77
2018-07-05T09:16:59.593Z,7.83
2018-07-05T09:19:27.162Z,8.00
2018-07-05T09:21:54.744Z,6.67
2018-07-05T09:24:22.359Z,6.23
2018-07-05T09:26:49.951Z,7.17
2018-07-05T09:29:17.563Z,7.77
2018-07-05T09:31:45.114Z,8.30
2018-07-05T09:34:12.684Z,7.40
2018-07-05T09:36:40.232Z,8.57
2018-07-05T09:39:07.945Z,7.93
2018-07-05T09:41:36.224Z,7.07
2018-07-05T09:44:04.109Z,7.77
2018-07-05T09:46:31.664Z,7.00
2018-07-05T09:48:59.236Z,7.47
2018-07-05T09:51:26.798Z,6.70
2018-07-05T09:53:54.372Z,5.67
2018-07-05T09:56:21.936Z,5.80
2018-07-05T09:58:49.993Z,7.03
2018-07-05T10:01:17.589Z,6.87
2018-07-05T10:03:45.180Z,5.70
2018-07-05T10:06:12.737Z,6.27
2018-07-05T10:08:40.348Z,6.60
2018-07-05T10:11:07.916Z,5.90
2018-07-05T10:13:35.588Z,6.60
2018-07-05T10:16:03.429Z,6.50
2018-07-05T10:18:31.001Z,5.87
2018-07-05T10:20:58.577Z,6.07
2018-07-05T10:23:26.140Z,6.13
2018-07-05T10:25:53.713Z,7.13
2018-07-05T10:28:21.281Z,7.03
2018-07-05T10:30:54.880Z,7.33
2018-07-05T10:33:28.408Z,8.23
2018-07-05T10:35:55.980Z,8.63
2018-07-05T10:38:23.540Z,8.20
2018-07-05T10:40:57.260Z,8.53
2018-07-05T10:43:30.848Z,9.67
2018-07-05T10:46:04.492Z,9.30
2018-07-05T10:48:38.429Z,9.20
2018-07-05T10:51:12.172Z,9.40
2018-07-05T10:53:45.899Z,8.60
2018-07-05T10:56:19.628Z,7.57
2018-07-05T10:58:53.175Z,7.77
2018-07-05T11:01:27.013Z,7.53
2018-07-05T11:04:00.616Z,7.97
2018-07-05T11:06:34.267Z,7.53
2018-07-05T11:09:08.252Z,8.83
2018-07-05T11:11:41.832Z,7.83
2018-07-05T11:14:15.548Z,8.90
2018-07-05T11:16:49.087Z,9.40
2018-07-05T11:19:22.948Z,8.07
2018-07-05T11:21:56.552Z,9.30
2018-07-05T11:24:30.256Z,9.30
2018-07-05T11:27:03.904Z,9.13
2018-07-05T11:29:37.758Z,9.50
2018-07-05T11:32:11.316Z,10.23
2018-07-05T11:34:44.862Z,9.03
2018-07-05T11:37:18.576Z,9.23
2018-07-05T11:39:52.280Z,9.23
2018-07-05T11:42:25.885Z,8.23
2018-07-05T11:44:59.380Z,9.73
2018-07-05T11:47:33.188Z,9.67
2018-07-05T11:50:06.733Z,8.57
2018-07-05T11:52:40.462Z,8.13
2018-07-05T11:55:14.168Z,7.63
2018-07-05T11:57:47.792Z,8.33
2018-07-05T12:00:21.609Z,7.60
2018-07-05T12:02:55.296Z,8.10
2018-07-05T12:05:28.908Z,7.47
2018-07-05T12:08:02.733Z,7.40
2018-07-05T12:10:36.371Z,8.00
2018-07-05T12:13:09.993Z,8.03
2018-07-05T12:15:43.526Z,7.80
2018-07-05T12:18:17.376Z,8.70
2018-07-05T12:23:19.630Z,9.00
2018-07-05T12:25:53.244Z,9.63
2018-07-05T12:28:27.072Z,9.70
2018-07-05T12:31:00.600Z,9.20
2018-07-05T12:33:34.352Z,8.90
2018-07-05T12:36:08.105Z,9.70
2018-07-05T12:38:41.751Z,8.90
2018-07-05T12:41:15.305Z,11.33
2018-07-05T12:43:49.028Z,10.80
2018-07-05T12:46:22.808Z,11.73
2018-07-05T12:48:56.363Z,9.70
2018-07-05T12:51:30.121Z,10.43
2018-07-05T12:54:03.720Z,13.47
2018-07-05T12:56:37.248Z,18.30
2018-07-05T12:59:10.968Z,19.90
2018-07-05T13:01:44.492Z,19.47
2018-07-05T13:04:18.286Z,16.50
2018-07-05T13:06:52.029Z,19.40
2018-07-05T13:09:25.663Z,17.50
2018-07-05T13:11:59.360Z,17.43
2018-07-05T13:14:33.058Z,18.30
2018-07-05T13:17:06.741Z,19.57
2018-07-05T13:19:40.331Z,25.90
2018-07-05T13:22:13.948Z,20.27
2018-07-05T13:24:47.599Z,21.00
2018-07-05T13:27:21.223Z,24.33
2018-07-05T13:29:54.867Z,20.90
2018-07-05T13:32:28.668Z,24.77
2018-07-05T13:35:02.341Z,20.60
2018-07-05T13:37:36.068Z,22.67
2018-07-05T13:40:09.825Z,21.57
2018-07-05T13:42:43.576Z,21.00
2018-07-05T13:45:17.590Z,19.10
2018-07-05T13:47:51.181Z,19.20
2018-07-05T13:50:25.046Z,19.03
2018-07-05T13:52:58.696Z,16.60
2018-07-05T13:55:32.468Z,14.90
2018-07-05T13:58:06.028Z,14.07
2018-07-05T14:00:39.742Z,12.60
2018-07-05T14:03:13.347Z,11.90
2018-07-05T14:05:47.033Z,9.57
2018-07-05T14:08:20.750Z,8.27
2018-07-05T14:10:54.413Z,7.40
2018-07-05T14:13:28.444Z,7.30
2018-07-05T14:16:02.166Z,6.20
2018-07-05T14:18:35.637Z,6.90
2018-07-05T14:21:09.281Z,7.40
2018-07-05T14:23:42.937Z,7.00
2018-07-05T14:26:16.560Z,6.80
2018-07-05T14:28:50.196Z,7.97
2018-07-05T14:31:23.974Z,8.73
2018-07-05T14:33:57.556Z,7.83
2018-07-05T14:36:31.216Z,8.70
2018-07-05T14:39:05.567Z,7.60
2018-07-05T14:41:39.167Z,8.30
2018-07-05T14:44:12.781Z,8.67
2018-07-05T14:46:46.594Z,9.40
2018-07-05T14:49:20.177Z,8.80
2018-07-05T14:51:53.759Z,7.83
2018-07-05T14:54:27.369Z,7.30
2018-07-05T14:57:01.195Z,7.13
2018-07-05T14:59:34.796Z,6.97
2018-07-05T15:02:08.549Z,7.17
2018-07-05T15:04:42.152Z,6.40
2018-07-05T15:07:15.833Z,6.93
2018-07-05T15:09:49.596Z,7.53
2018-07-05T15:12:23.280Z,6.43
2018-07-05T15:14:56.978Z,6.30
2018-07-05T15:17:30.699Z,5.67
2018-07-05T15:20:04.333Z,6.00
2018-07-05T15:22:38.149Z,6.17
2018-07-05T15:25:11.812Z,5.73
2018-07-05T15:27:45.758Z,5.07
2018-07-05T15:30:19.866Z,5.60
2018-07-05T15:32:53.545Z,5.80
2018-07-05T15:35:27.083Z,5.70
2018-07-05T15:38:00.629Z,5.60
2018-07-05T15:40:34.485Z,5.50
2018-07-05T15:43:08.159Z,5.77
2018-07-05T15:45:41.928Z,5.77
2018-07-05T15:48:15.716Z,5.53
2018-07-05T15:50:49.321Z,5.10
2018-07-05T15:53:22.981Z,5.20
2018-07-05T15:55:56.732Z,5.70
2018-07-05T15:58:30.429Z,5.17
2018-07-05T16:01:04.027Z,5.63
2018-07-05T16:03:37.751Z,5.43
2018-07-05T16:06:11.512Z,4.53
2018-07-05T16:08:45.315Z,4.60
2018-07-05T16:11:18.908Z,3.90
2018-07-05T16:13:52.716Z,4.13
2018-07-05T16:16:26.409Z,3.80
2018-07-05T16:19:00.031Z,4.30
2018-07-05T16:21:33.551Z,3.97
2018-07-05T16:24:07.208Z,3.87
2018-07-05T16:26:40.980Z,5.03
2018-07-05T16:29:14.640Z,4.40
2018-07-05T16:31:48.492Z,5.10
2018-07-05T16:34:22.225Z,4.13
2018-07-05T16:36:56.053Z,4.00
2018-07-05T16:39:29.616Z,3.97
2018-07-05T16:42:03.228Z,4.23
2018-07-05T16:44:36.985Z,4.10
2018-07-05T16:47:10.740Z,4.20
2018-07-05T16:49:44.376Z,4.20
2018-07-05T16:52:18.068Z,4.00
2018-07-05T16:54:51.705Z,3.83
2018-07-05T16:57:25.285Z,4.70
2018-07-05T16:59:58.891Z,7.07
2018-07-05T17:02:32.541Z,8.70
2018-07-05T17:05:06.143Z,8.80
2018-07-05T17:07:39.805Z,9.60
2018-07-05T17:10:13.499Z,9.37
2018-07-05T17:12:47.006Z,9.73
2018-07-05T17:15:20.663Z,10.30
2018-07-05T17:17:54.245Z,9.50
2018-07-05T17:20:27.867Z,9.90
2018-07-05T17:23:01.524Z,8.40
2018-07-05T17:25:35.169Z,6.70
2018-07-05T17:28:08.929Z,6.60
2018-07-05T17:30:42.701Z,4.90
2018-07-05T17:33:16.369Z,5.00
2018-07-05T17:35:49.985Z,4.47
2018-07-05T17:38:23.686Z,4.23
2018-07-05T17:40:57.480Z,4.07
2018-07-05T17:43:31.309Z,3.70
2018-07-05T17:46:05.072Z,4.10
2018-07-05T17:48:38.599Z,3.60
2018-07-05T17:51:12.276Z,3.00
2018-07-05T17:53:45.948Z,2.97
2018-07-05T17:56:19.603Z,2.93
2018-07-05T17:58:53.285Z,3.00
2018-07-05T18:01:27.069Z,2.77
2018-07-05T18:04:00.677Z,3.20
2018-07-05T18:06:34.451Z,3.10
2018-07-05T18:09:08.121Z,2.60
2018-07-05T18:11:41.728Z,2.20
2018-07-05T18:14:15.327Z,2.83
2018-07-05T18:16:48.978Z,2.40
2018-07-05T18:19:22.653Z,2.63
2018-07-05T18:21:56.269Z,2.87
2018-07-05T18:24:29.912Z,2.37
2018-07-05T18:27:03.616Z,2.53
2018-07-05T18:29:37.316Z,2.40
2018-07-05T18:32:10.864Z,2.60
2018-07-05T18:34:44.350Z,2.50
2018-07-05T18:37:18.012Z,2.63
2018-07-05T18:39:51.685Z,2.83
2018-07-05T18:42:25.409Z,2.60
2018-07-05T18:44:59.108Z,2.60
2018-07-05T18:47:32.922Z,2.77
2018-07-05T18:50:06.628Z,2.43
2018-07-05T18:52:40.249Z,2.70
2018-07-05T18:55:15.240Z,2.90
2018-07-05T18:57:48.882Z,3.03
2018-07-05T19:06:17.634Z,3.43
2018-07-05T19:08:58.930Z,2.70
2018-07-05T19:11:34.749Z,2.57
2018-07-05T19:14:08.888Z,2.60
2018-07-05T19:16:44.016Z,3.67
2018-07-05T19:19:18.133Z,3.50
2018-07-05T19:24:34.322Z,2.83
2018-07-05T19:27:08.230Z,2.70
2018-07-05T19:29:41.808Z,3.50
2018-07-05T19:32:15.385Z,3.40
2018-07-05T19:34:49.032Z,3.27
2018-07-05T19:37:22.594Z,2.80
2018-07-05T19:39:56.321Z,2.90
2018-07-05T19:42:29.874Z,2.90
2018-07-05T19:45:03.548Z,2.50
2018-07-05T19:47:37.297Z,2.70
2018-07-05T19:50:10.997Z,2.80
2018-07-05T19:52:45.013Z,2.60
2018-07-05T19:55:18.980Z,2.50
2018-07-05T19:57:52.840Z,2.63
2018-07-05T20:00:26.522Z,2.70
2018-07-05T20:03:00.644Z,3.00
2018-07-05T20:05:34.331Z,3.33
2018-07-05T20:08:07.845Z,3.37
2018-07-05T20:10:41.387Z,3.10
2018-07-05T20:13:15.191Z,3.33
2018-07-05T20:15:48.849Z,3.73
2018-07-05T20:18:22.482Z,3.50
2018-07-05T20:20:56.137Z,3.60
2018-07-05T20:23:29.892Z,3.67
2018-07-05T20:26:03.505Z,3.87
2018-07-05T20:31:08.475Z,3.80
2018-07-05T20:33:41.948Z,3.60
2018-07-05T20:36:15.653Z,3.73
2018-07-05T20:38:49.444Z,3.23
2018-07-05T20:41:23.145Z,4.00
2018-07-05T20:43:56.877Z,3.67
2018-07-05T20:46:30.676Z,4.20
2018-07-05T20:49:04.606Z,3.50
2018-07-05T20:51:38.091Z,4.00
2018-07-05T20:54:11.847Z,3.63
2018-07-05T20:56:45.427Z,4.33
2018-07-05T20:59:19.284Z,4.30
2018-07-05T21:01:53.091Z,4.10
2018-07-05T21:04:26.704Z,4.93
2018-07-05T21:07:00.518Z,4.37
2018-07-05T21:09:34.275Z,4.90
2018-07-05T21:12:08.008Z,4.70
2018-07-05T21:14:41.620Z,5.07
2018-07-05T21:17:15.326Z,5.90
2018-07-05T21:19:49.061Z,5.23
2018-07-05T21:22:22.793Z,4.90
2018-07-05T21:24:56.420Z,5.10
2018-07-05T21:27:30.072Z,4.50
2018-07-05T21:30:03.741Z,4.57
2018-07-05T21:32:37.419Z,5.53
2018-07-05T21:35:11.277Z,4.83
2018-07-05T21:37:44.856Z,4.53
2018-07-05T21:40:18.576Z,4.53
2018-07-05T21:42:52.153Z,4.97
2018-07-05T21:45:25.767Z,5.23
2018-07-05T21:47:59.516Z,4.30
2018-07-05T21:50:33.153Z,4.57
2018-07-05T21:53:06.877Z,4.70
2018-07-05T21:55:40.692Z,4.50
2018-07-05T21:58:14.319Z,4.87
2018-07-05T22:00:48.136Z,5.00
2018-07-05T22:03:21.876Z,4.87
2018-07-05T22:05:55.585Z,5.37
2018-07-05T22:08:29.297Z,5.40
2018-07-05T22:11:03.108Z,5.40
2018-07-05T22:13:36.824Z,5.60
2018-07-05T22:16:10.498Z,4.80
2018-07-05T22:18:49.544Z,5.20
2018-07-05T22:21:23.325Z,5.70
2018-07-05T22:24:02.496Z,5.77
2018-07-05T22:26:42.409Z,5.30
2018-07-05T22:29:21.685Z,6.17
2018-07-05T22:31:59.391Z,5.10
2018-07-05T22:34:33.109Z,4.90
2018-07-05T22:37:06.883Z,5.40
2018-07-05T22:39:40.641Z,5.30
2018-07-05T22:42:14.395Z,6.30
2018-07-05T22:44:48.070Z,5.33
2018-07-05T22:47:21.733Z,5.80
2018-07-05T22:49:55.458Z,5.13
2018-07-05T22:52:29.306Z,5.80
2018-07-05T22:55:02.941Z,5.10
2018-07-05T22:57:36.762Z,5.20
2018-07-05T23:00:10.585Z,5.70
2018-07-05T23:02:44.209Z,5.73
2018-07-05T23:05:17.853Z,5.40
2018-07-05T23:07:51.665Z,4.80
2018-07-05T23:10:25.292Z,4.10
2018-07-05T23:12:58.911Z,4.77
2018-07-05T23:15:32.665Z,3.63
2018-07-05T23:18:06.360Z,3.50
2018-07-05T23:20:40.099Z,4.00
2018-07-05T23:23:13.904Z,3.37
2018-07-05T23:25:47.516Z,3.93
2018-07-05T23:28:21.233Z,4.20
2018-07-05T23:30:54.917Z,4.40
2018-07-05T23:33:28.674Z,3.90
2018-07-05T23:36:02.460Z,3.97
2018-07-05T23:38:36.234Z,3.93
2018-07-05T23:41:09.889Z,3.60
2018-07-05T23:43:43.632Z,3.57
2018-07-05T23:46:17.424Z,3.43
2018-07-05T23:48:51.264Z,3.40
2018-07-05T23:51:25.156Z,3.40
2018-07-05T23:53:58.844Z,3.33
2018-07-05T23:56:32.608Z,3.57
2018-07-05T23:59:06.327Z,3.80
